sensor_id;sensor_type;location;lat;lon;timestamp;pressure;altitude;pressure_sealevel;temperature;humidity
20115;BME280;10218;42.874;25.320;2023-04-19T00:00:10;96784.16;;;11.98;100.00
20115;BME280;10218;42.874;25.320;2023-04-19T00:02:38;96787.78;;;12.33;100.00
20115;BME280;10218;42.874;25.320;2023-04-19T00:05:08;96775.34;;;12.26;100.00
20115;BME280;10218;42.874;25.320;2023-04-19T00:07:35;96777.50;;;11.94;100.00
20115;BME280;10218;42.874;25.320;2023-04-19T00:10:03;96783.16;;;11.85;100.00
20115;BME280;10218;42.874;25.320;2023-04-19T00:12:30;96771.31;;;11.73;100.00
20115;BME280;10218;42.874;25.320;2023-04-19T00:14:57;96777.09;;;12.12;100.00
20115;BME280;10218;42.874;25.320;2023-04-19T00:17:24;96770.81;;;12.26;100.00
20115;BME280;10218;42.874;25.320;2023-04-19T00:19:52;96769.22;;;12.11;100.00
20115;BME280;10218;42.874;25.320;2023-04-19T00:22:19;96763.28;;;12.36;100.00
20115;BME280;10218;42.874;25.320;2023-04-19T00:24:46;96758.59;;;12.38;100.00
20115;BME280;10218;42.874;25.320;2023-04-19T00:27:13;96767.56;;;12.10;100.00
20115;BME280;10218;42.874;25.320;2023-04-19T00:29:41;96769.69;;;11.93;100.00
20115;BME280;10218;42.874;25.320;2023-04-19T00:32:08;96757.44;;;12.05;100.00
20115;BME280;10218;42.874;25.320;2023-04-19T00:34:35;96761.28;;;12.17;100.00
20115;BME280;10218;42.874;25.320;2023-04-19T00:37:02;96751.22;;;12.47;100.00
20115;BME280;10218;42.874;25.320;2023-04-19T00:39:32;96753.66;;;11.64;100.00
20115;BME280;10218;42.874;25.320;2023-04-19T00:41:59;96760.34;;;11.89;100.00
20115;BME280;10218;42.874;25.320;2023-04-19T00:44:26;96757.25;;;12.28;100.00
20115;BME280;10218;42.874;25.320;2023-04-19T00:46:55;96759.09;;;12.06;100.00
20115;BME280;10218;42.874;25.320;2023-04-19T00:49:24;96752.97;;;12.12;100.00
20115;BME280;10218;42.874;25.320;2023-04-19T00:52:02;96757.31;;;12.13;100.00
20115;BME280;10218;42.874;25.320;2023-04-19T00:54:29;96752.44;;;12.44;100.00
20115;BME280;10218;42.874;25.320;2023-04-19T00:56:57;96747.88;;;12.66;100.00
20115;BME280;10218;42.874;25.320;2023-04-19T00:59:24;96755.25;;;12.92;100.00
20115;BME280;10218;42.874;25.320;2023-04-19T01:01:51;96746.19;;;12.93;100.00
20115;BME280;10218;42.874;25.320;2023-04-19T01:04:19;96747.69;;;12.68;100.00
20115;BME280;10218;42.874;25.320;2023-04-19T01:06:49;96732.91;;;12.51;100.00
20115;BME280;10218;42.874;25.320;2023-04-19T01:09:16;96751.06;;;12.06;100.00
20115;BME280;10218;42.874;25.320;2023-04-19T01:11:43;96753.41;;;12.16;100.00
20115;BME280;10218;42.874;25.320;2023-04-19T01:14:10;96746.31;;;12.29;100.00
20115;BME280;10218;42.874;25.320;2023-04-19T01:16:37;96753.03;;;11.97;100.00
20115;BME280;10218;42.874;25.320;2023-04-19T01:19:04;96750.16;;;12.41;100.00
20115;BME280;10218;42.874;25.320;2023-04-19T01:21:32;96742.19;;;12.27;100.00
20115;BME280;10218;42.874;25.320;2023-04-19T01:24:04;96744.34;;;11.74;100.00
20115;BME280;10218;42.874;25.320;2023-04-19T01:26:31;96748.84;;;11.74;100.00
20115;BME280;10218;42.874;25.320;2023-04-19T01:29:01;96737.94;;;12.11;100.00
20115;BME280;10218;42.874;25.320;2023-04-19T01:31:28;96746.53;;;11.85;100.00
20115;BME280;10218;42.874;25.320;2023-04-19T01:33:55;96745.00;;;11.97;100.00
20115;BME280;10218;42.874;25.320;2023-04-19T01:36:22;96740.16;;;12.08;100.00
20115;BME280;10218;42.874;25.320;2023-04-19T01:38:49;96737.53;;;12.35;100.00
20115;BME280;10218;42.874;25.320;2023-04-19T01:41:16;96731.16;;;12.15;100.00
20115;BME280;10218;42.874;25.320;2023-04-19T01:43:46;96735.69;;;12.15;100.00
20115;BME280;10218;42.874;25.320;2023-04-19T01:46:13;96727.78;;;12.56;100.00
20115;BME280;10218;42.874;25.320;2023-04-19T01:48:40;96734.34;;;12.04;100.00
20115;BME280;10218;42.874;25.320;2023-04-19T01:51:07;96739.84;;;11.96;100.00
20115;BME280;10218;42.874;25.320;2023-04-19T01:53:34;96729.00;;;12.04;100.00
20115;BME280;10218;42.874;25.320;2023-04-19T01:56:01;96725.09;;;12.28;100.00
20115;BME280;10218;42.874;25.320;2023-04-19T01:58:28;96722.75;;;12.18;100.00
20115;BME280;10218;42.874;25.320;2023-04-19T02:00:55;96722.28;;;12.36;100.00
20115;BME280;10218;42.874;25.320;2023-04-19T02:03:23;96728.47;;;12.36;100.00
20115;BME280;10218;42.874;25.320;2023-04-19T02:05:50;96726.19;;;12.12;100.00
20115;BME280;10218;42.874;25.320;2023-04-19T02:08:19;96729.31;;;11.37;100.00
20115;BME280;10218;42.874;25.320;2023-04-19T02:10:47;96731.63;;;11.62;100.00
20115;BME280;10218;42.874;25.320;2023-04-19T02:13:14;96719.88;;;11.41;100.00
20115;BME280;10218;42.874;25.320;2023-04-19T02:15:41;96726.91;;;11.64;100.00
20115;BME280;10218;42.874;25.320;2023-04-19T02:18:09;96718.66;;;11.80;100.00
20115;BME280;10218;42.874;25.320;2023-04-19T02:20:38;96726.84;;;11.93;100.00
20115;BME280;10218;42.874;25.320;2023-04-19T02:23:05;96718.41;;;12.17;100.00
20115;BME280;10218;42.874;25.320;2023-04-19T02:25:33;96717.22;;;11.77;100.00
20115;BME280;10218;42.874;25.320;2023-04-19T02:28:00;96723.41;;;11.78;100.00
20115;BME280;10218;42.874;25.320;2023-04-19T02:30:27;96720.91;;;11.76;100.00
20115;BME280;10218;42.874;25.320;2023-04-19T02:32:54;96729.78;;;11.98;100.00
20115;BME280;10218;42.874;25.320;2023-04-19T02:35:21;96718.78;;;12.35;100.00
20115;BME280;10218;42.874;25.320;2023-04-19T02:37:48;96719.56;;;11.87;100.00
20115;BME280;10218;42.874;25.320;2023-04-19T02:40:17;96714.34;;;11.79;100.00
20115;BME280;10218;42.874;25.320;2023-04-19T02:42:44;96720.50;;;11.43;100.00
20115;BME280;10218;42.874;25.320;2023-04-19T02:45:11;96716.47;;;11.47;100.00
20115;BME280;10218;42.874;25.320;2023-04-19T02:47:38;96712.44;;;11.58;100.00
20115;BME280;10218;42.874;25.320;2023-04-19T02:50:06;96716.19;;;11.64;100.00
20115;BME280;10218;42.874;25.320;2023-04-19T02:52:33;96707.31;;;11.99;100.00
20115;BME280;10218;42.874;25.320;2023-04-19T02:55:00;96714.22;;;12.08;100.00
20115;BME280;10218;42.874;25.320;2023-04-19T02:57:28;96706.78;;;12.04;100.00
20115;BME280;10218;42.874;25.320;2023-04-19T02:59:55;96706.50;;;11.41;100.00
20115;BME280;10218;42.874;25.320;2023-04-19T03:02:22;96717.59;;;11.74;100.00
20115;BME280;10218;42.874;25.320;2023-04-19T03:04:49;96723.78;;;11.75;100.00
20115;BME280;10218;42.874;25.320;2023-04-19T03:07:16;96715.94;;;11.58;100.00
20115;BME280;10218;42.874;25.320;2023-04-19T03:09:43;96715.84;;;11.31;100.00
20115;BME280;10218;42.874;25.320;2023-04-19T03:12:11;96723.91;;;11.88;100.00
20115;BME280;10218;42.874;25.320;2023-04-19T03:14:38;96715.37;;;11.42;100.00
20115;BME280;10218;42.874;25.320;2023-04-19T03:17:05;96712.12;;;11.82;100.00
20115;BME280;10218;42.874;25.320;2023-04-19T03:19:32;96708.63;;;11.82;100.00
20115;BME280;10218;42.874;25.320;2023-04-19T03:21:59;96719.25;;;11.61;100.00
20115;BME280;10218;42.874;25.320;2023-04-19T03:24:28;96719.88;;;11.41;100.00
20115;BME280;10218;42.874;25.320;2023-04-19T03:26:57;96719.66;;;11.43;100.00
20115;BME280;10218;42.874;25.320;2023-04-19T03:29:24;96717.50;;;11.68;100.00
20115;BME280;10218;42.874;25.320;2023-04-19T03:31:52;96727.88;;;11.92;100.00
20115;BME280;10218;42.874;25.320;2023-04-19T03:34:19;96715.66;;;11.68;100.00
20115;BME280;10218;42.874;25.320;2023-04-19T03:36:46;96725.63;;;11.95;100.00
20115;BME280;10218;42.874;25.320;2023-04-19T03:39:13;96719.00;;;11.91;100.00
20115;BME280;10218;42.874;25.320;2023-04-19T03:41:41;96721.56;;;11.64;100.00
20115;BME280;10218;42.874;25.320;2023-04-19T03:44:09;96722.59;;;11.48;100.00
20115;BME280;10218;42.874;25.320;2023-04-19T03:46:36;96718.97;;;11.34;100.00
20115;BME280;10218;42.874;25.320;2023-04-19T03:49:03;96721.03;;;12.11;100.00
20115;BME280;10218;42.874;25.320;2023-04-19T03:51:30;96723.13;;;11.94;100.00
20115;BME280;10218;42.874;25.320;2023-04-19T03:53:57;96718.94;;;11.70;100.00
20115;BME280;10218;42.874;25.320;2023-04-19T03:56:25;96716.47;;;11.83;100.00
20115;BME280;10218;42.874;25.320;2023-04-19T03:58:52;96728.94;;;11.76;100.00
20115;BME280;10218;42.874;25.320;2023-04-19T04:01:21;96727.16;;;11.33;100.00
20115;BME280;10218;42.874;25.320;2023-04-19T04:03:50;96725.09;;;11.49;100.00
20115;BME280;10218;42.874;25.320;2023-04-19T04:06:17;96721.41;;;11.50;100.00
20115;BME280;10218;42.874;25.320;2023-04-19T04:08:45;96717.28;;;12.05;100.00
20115;BME280;10218;42.874;25.320;2023-04-19T04:11:12;96731.03;;;11.81;100.00
20115;BME280;10218;42.874;25.320;2023-04-19T04:13:39;96725.38;;;12.12;100.00
20115;BME280;10218;42.874;25.320;2023-04-19T04:16:07;96729.13;;;12.17;100.00
20115;BME280;10218;42.874;25.320;2023-04-19T04:18:35;96727.69;;;11.93;100.00
20115;BME280;10218;42.874;25.320;2023-04-19T04:21:03;96732.78;;;11.38;100.00
20115;BME280;10218;42.874;25.320;2023-04-19T04:23:30;96730.19;;;11.44;100.00
20115;BME280;10218;42.874;25.320;2023-04-19T04:25:59;96734.03;;;11.21;100.00
20115;BME280;10218;42.874;25.320;2023-04-19T04:28:31;96734.25;;;11.40;100.00
20115;BME280;10218;42.874;25.320;2023-04-19T04:30:59;96736.78;;;11.63;100.00
20115;BME280;10218;42.874;25.320;2023-04-19T04:33:29;96736.97;;;11.76;100.00
20115;BME280;10218;42.874;25.320;2023-04-19T04:35:56;96738.31;;;11.87;100.00
20115;BME280;10218;42.874;25.320;2023-04-19T04:38:25;96729.00;;;12.04;100.00
20115;BME280;10218;42.874;25.320;2023-04-19T04:40:54;96737.91;;;11.54;100.00
20115;BME280;10218;42.874;25.320;2023-04-19T04:43:23;96748.78;;;11.67;100.00
20115;BME280;10218;42.874;25.320;2023-04-19T04:45:50;96740.63;;;11.39;100.00
20115;BME280;10218;42.874;25.320;2023-04-19T04:48:17;96742.94;;;11.64;100.00
20115;BME280;10218;42.874;25.320;2023-04-19T04:50:44;96746.66;;;11.77;100.00
20115;BME280;10218;42.874;25.320;2023-04-19T04:53:12;96738.31;;;11.87;100.00
20115;BME280;10218;42.874;25.320;2023-04-19T04:55:39;96749.38;;;11.84;100.00
20115;BME280;10218;42.874;25.320;2023-04-19T04:58:06;96743.09;;;11.91;100.00
20115;BME280;10218;42.874;25.320;2023-04-19T05:00:35;96747.41;;;11.56;100.00
20115;BME280;10218;42.874;25.320;2023-04-19T05:03:02;96757.97;;;11.79;100.00
20115;BME280;10218;42.874;25.320;2023-04-19T05:05:29;96754.47;;;11.28;100.00
20115;BME280;10218;42.874;25.320;2023-04-19T05:07:57;96747.78;;;11.53;100.00
20115;BME280;10218;42.874;25.320;2023-04-19T05:10:24;96750.44;;;11.32;100.00
20115;BME280;10218;42.874;25.320;2023-04-19T05:12:51;96754.16;;;11.38;100.00
20115;BME280;10218;42.874;25.320;2023-04-19T05:15:19;96758.06;;;11.35;100.00
20115;BME280;10218;42.874;25.320;2023-04-19T05:17:46;96761.50;;;11.00;100.00
20115;BME280;10218;42.874;25.320;2023-04-19T05:20:13;96758.81;;;11.29;100.00
20115;BME280;10218;42.874;25.320;2023-04-19T05:22:41;96761.31;;;10.87;100.00
20115;BME280;10218;42.874;25.320;2023-04-19T05:25:08;96764.50;;;10.67;100.00
20115;BME280;10218;42.874;25.320;2023-04-19T05:27:36;96764.63;;;10.89;100.00
20115;BME280;10218;42.874;25.320;2023-04-19T05:30:04;96769.22;;;10.65;100.00
20115;BME280;10218;42.874;25.320;2023-04-19T05:32:32;96771.63;;;10.75;100.00
20115;BME280;10218;42.874;25.320;2023-04-19T05:35:01;96772.62;;;11.18;100.00
20115;BME280;10218;42.874;25.320;2023-04-19T05:37:28;96767.75;;;10.92;100.00
20115;BME280;10218;42.874;25.320;2023-04-19T05:39:56;96779.09;;;11.09;100.00
20115;BME280;10218;42.874;25.320;2023-04-19T05:42:24;96765.72;;;11.09;100.00
20115;BME280;10218;42.874;25.320;2023-04-19T05:44:51;96774.41;;;11.11;100.00
20115;BME280;10218;42.874;25.320;2023-04-19T05:47:18;96767.94;;;10.91;100.00
20115;BME280;10218;42.874;25.320;2023-04-19T05:49:48;96780.03;;;10.87;100.00
20115;BME280;10218;42.874;25.320;2023-04-19T05:52:15;96773.75;;;10.80;100.00
20115;BME280;10218;42.874;25.320;2023-04-19T05:54:43;96761.78;;;10.90;100.00
20115;BME280;10218;42.874;25.320;2023-04-19T05:57:10;96771.22;;;10.63;100.00
20115;BME280;10218;42.874;25.320;2023-04-19T05:59:38;96778.63;;;10.61;100.00
20115;BME280;10218;42.874;25.320;2023-04-19T06:02:05;96762.69;;;10.83;100.00
20115;BME280;10218;42.874;25.320;2023-04-19T06:04:32;96770.19;;;11.02;100.00
20115;BME280;10218;42.874;25.320;2023-04-19T06:06:59;96772.75;;;11.10;100.00
20115;BME280;10218;42.874;25.320;2023-04-19T06:09:27;96773.09;;;10.78;100.00
20115;BME280;10218;42.874;25.320;2023-04-19T06:11:54;96769.25;;;10.95;100.00
20115;BME280;10218;42.874;25.320;2023-04-19T06:14:22;96777.81;;;11.05;100.00
20115;BME280;10218;42.874;25.320;2023-04-19T06:16:49;96780.31;;;10.92;100.00
20115;BME280;10218;42.874;25.320;2023-04-19T06:19:17;96776.16;;;10.89;100.00
20115;BME280;10218;42.874;25.320;2023-04-19T06:21:44;96783.87;;;10.84;100.00
20115;BME280;10218;42.874;25.320;2023-04-19T06:24:11;96784.53;;;10.71;100.00
20115;BME280;10218;42.874;25.320;2023-04-19T06:26:39;96789.72;;;11.17;100.00
20115;BME280;10218;42.874;25.320;2023-04-19T06:29:06;96791.34;;;11.18;100.00
20115;BME280;10218;42.874;25.320;2023-04-19T06:31:33;96793.09;;;11.40;100.00
20115;BME280;10218;42.874;25.320;2023-04-19T06:34:00;96791.00;;;11.21;100.00
20115;BME280;10218;42.874;25.320;2023-04-19T06:36:27;96792.28;;;10.96;100.00
20115;BME280;10218;42.874;25.320;2023-04-19T06:38:54;96800.19;;;10.75;100.00
20115;BME280;10218;42.874;25.320;2023-04-19T06:41:22;96801.56;;;10.70;100.00
20115;BME280;10218;42.874;25.320;2023-04-19T06:43:49;96791.91;;;11.13;100.00
20115;BME280;10218;42.874;25.320;2023-04-19T06:46:16;96795.97;;;11.24;100.00
20115;BME280;10218;42.874;25.320;2023-04-19T06:48:44;96801.25;;;10.51;100.00
20115;BME280;10218;42.874;25.320;2023-04-19T06:51:11;96811.31;;;10.63;100.00
20115;BME280;10218;42.874;25.320;2023-04-19T06:53:38;96801.69;;;10.92;100.00
20115;BME280;10218;42.874;25.320;2023-04-19T06:56:05;96802.03;;;11.03;100.00
20115;BME280;10218;42.874;25.320;2023-04-19T06:58:32;96801.13;;;10.96;100.00
20115;BME280;10218;42.874;25.320;2023-04-19T07:01:02;96803.53;;;11.06;100.00
20115;BME280;10218;42.874;25.320;2023-04-19T07:03:30;96802.69;;;11.20;100.00
20115;BME280;10218;42.874;25.320;2023-04-19T07:05:57;96805.75;;;11.46;100.00
20115;BME280;10218;42.874;25.320;2023-04-19T07:08:27;96817.91;;;11.49;100.00
20115;BME280;10218;42.874;25.320;2023-04-19T07:11:01;96814.94;;;11.58;100.00
20115;BME280;10218;42.874;25.320;2023-04-19T07:13:28;96817.06;;;11.48;100.00
20115;BME280;10218;42.874;25.320;2023-04-19T07:15:55;96819.72;;;11.48;100.00
20115;BME280;10218;42.874;25.320;2023-04-19T07:18:22;96821.59;;;11.63;100.00
20115;BME280;10218;42.874;25.320;2023-04-19T07:20:49;96821.66;;;11.54;100.00
20115;BME280;10218;42.874;25.320;2023-04-19T07:23:16;96823.22;;;11.64;100.00
20115;BME280;10218;42.874;25.320;2023-04-19T07:25:44;96817.34;;;11.68;100.00
20115;BME280;10218;42.874;25.320;2023-04-19T07:28:12;96823.97;;;11.87;100.00
20115;BME280;10218;42.874;25.320;2023-04-19T07:30:39;96812.03;;;11.89;100.00
20115;BME280;10218;42.874;25.320;2023-04-19T07:33:06;96824.09;;;11.35;100.00
20115;BME280;10218;42.874;25.320;2023-04-19T07:35:34;96830.06;;;11.66;100.00
20115;BME280;10218;42.874;25.320;2023-04-19T07:38:01;96826.31;;;11.31;100.00
20115;BME280;10218;42.874;25.320;2023-04-19T07:40:28;96835.81;;;12.14;100.00
20115;BME280;10218;42.874;25.320;2023-04-19T07:42:55;96835.69;;;11.71;100.00
20115;BME280;10218;42.874;25.320;2023-04-19T07:45:23;96841.69;;;11.88;100.00
20115;BME280;10218;42.874;25.320;2023-04-19T07:47:50;96838.75;;;11.83;100.00
20115;BME280;10218;42.874;25.320;2023-04-19T07:50:17;96841.50;;;11.60;100.00
20115;BME280;10218;42.874;25.320;2023-04-19T07:52:44;96835.03;;;11.69;100.00
20115;BME280;10218;42.874;25.320;2023-04-19T07:55:11;96845.59;;;11.41;100.00
20115;BME280;10218;42.874;25.320;2023-04-19T07:57:38;96845.72;;;11.84;100.00
20115;BME280;10218;42.874;25.320;2023-04-19T08:00:06;96837.16;;;11.88;100.00
20115;BME280;10218;42.874;25.320;2023-04-19T08:02:47;96835.91;;;12.06;100.00
20115;BME280;10218;42.874;25.320;2023-04-19T08:05:15;96837.44;;;11.79;100.00
20115;BME280;10218;42.874;25.320;2023-04-19T08:07:45;96836.81;;;12.13;100.00
20115;BME280;10218;42.874;25.320;2023-04-19T08:10:13;96834.53;;;12.31;100.00
20115;BME280;10218;42.874;25.320;2023-04-19T08:12:41;96836.75;;;12.06;100.00
20115;BME280;10218;42.874;25.320;2023-04-19T08:15:13;96831.00;;;12.30;100.00
20115;BME280;10218;42.874;25.320;2023-04-19T08:17:55;96841.56;;;11.96;100.00
20115;BME280;10218;42.874;25.320;2023-04-19T08:20:22;96834.97;;;12.56;100.00
20115;BME280;10218;42.874;25.320;2023-04-19T08:22:49;96834.47;;;12.46;100.00
20115;BME280;10218;42.874;25.320;2023-04-19T08:25:16;96837.34;;;12.44;100.00
20115;BME280;10218;42.874;25.320;2023-04-19T08:27:43;96831.94;;;12.86;100.00
20115;BME280;10218;42.874;25.320;2023-04-19T08:30:10;96826.25;;;12.47;100.00
20115;BME280;10218;42.874;25.320;2023-04-19T08:32:38;96839.84;;;11.74;100.00
20115;BME280;10218;42.874;25.320;2023-04-19T08:35:05;96822.97;;;11.44;100.00
20115;BME280;10218;42.874;25.320;2023-04-19T08:37:33;96842.28;;;12.05;100.00
20115;BME280;10218;42.874;25.320;2023-04-19T08:40:01;96833.66;;;12.09;100.00
20115;BME280;10218;42.874;25.320;2023-04-19T08:42:30;96829.75;;;12.26;100.00
20115;BME280;10218;42.874;25.320;2023-04-19T08:45:01;96836.25;;;12.17;100.00
20115;BME280;10218;42.874;25.320;2023-04-19T08:47:35;96837.22;;;12.80;100.00
20115;BME280;10218;42.874;25.320;2023-04-19T08:50:06;96829.19;;;12.80;100.00
20115;BME280;10218;42.874;25.320;2023-04-19T08:52:42;96838.13;;;12.59;100.00
20115;BME280;10218;42.874;25.320;2023-04-19T08:55:18;96836.00;;;12.33;100.00
20115;BME280;10218;42.874;25.320;2023-04-19T08:57:45;96843.59;;;12.51;100.00
20115;BME280;10218;42.874;25.320;2023-04-19T09:00:12;96830.00;;;12.74;100.00
20115;BME280;10218;42.874;25.320;2023-04-19T09:02:58;96828.78;;;13.04;100.00
20115;BME280;10218;42.874;25.320;2023-04-19T09:05:25;96827.53;;;13.00;100.00
20115;BME280;10218;42.874;25.320;2023-04-19T09:07:52;96824.88;;;13.76;100.00
20115;BME280;10218;42.874;25.320;2023-04-19T09:10:20;96826.12;;;12.83;100.00
20115;BME280;10218;42.874;25.320;2023-04-19T09:13:05;96824.75;;;13.49;100.00
20115;BME280;10218;42.874;25.320;2023-04-19T09:15:37;96828.09;;;12.96;100.00
20115;BME280;10218;42.874;25.320;2023-04-19T09:18:09;96829.25;;;13.83;100.00
20115;BME280;10218;42.874;25.320;2023-04-19T09:20:41;96826.72;;;14.36;100.00
20115;BME280;10218;42.874;25.320;2023-04-19T09:23:12;96822.72;;;14.12;100.00
20115;BME280;10218;42.874;25.320;2023-04-19T09:28:55;96825.75;;;15.16;100.00
20115;BME280;10218;42.874;25.320;2023-04-19T09:31:23;96817.81;;;15.60;100.00
20115;BME280;10218;42.874;25.320;2023-04-19T09:34:17;96820.81;;;14.93;100.00
20115;BME280;10218;42.874;25.320;2023-04-19T09:36:44;96823.56;;;14.12;100.00
20115;BME280;10218;42.874;25.320;2023-04-19T09:39:12;96809.63;;;15.03;100.00
20115;BME280;10218;42.874;25.320;2023-04-19T09:41:52;96817.97;;;15.78;100.00
20115;BME280;10218;42.874;25.320;2023-04-19T09:44:21;96823.09;;;15.03;100.00
20115;BME280;10218;42.874;25.320;2023-04-19T09:46:50;96818.31;;;15.11;100.00
20115;BME280;10218;42.874;25.320;2023-04-19T09:49:22;96810.03;;;15.13;100.00
20115;BME280;10218;42.874;25.320;2023-04-19T09:51:54;96808.81;;;15.02;100.00
20115;BME280;10218;42.874;25.320;2023-04-19T09:54:23;96812.50;;;14.55;100.00
20115;BME280;10218;42.874;25.320;2023-04-19T09:56:50;96813.69;;;14.26;100.00
20115;BME280;10218;42.874;25.320;2023-04-19T09:59:20;96810.22;;;15.18;100.00
20115;BME280;10218;42.874;25.320;2023-04-19T10:01:53;96801.84;;;15.65;100.00
20115;BME280;10218;42.874;25.320;2023-04-19T10:04:21;96798.31;;;15.65;100.00
20115;BME280;10218;42.874;25.320;2023-04-19T10:06:55;96797.63;;;14.79;100.00
20115;BME280;10218;42.874;25.320;2023-04-19T10:09:25;96804.25;;;14.76;100.00
20115;BME280;10218;42.874;25.320;2023-04-19T10:11:53;96793.69;;;14.75;100.00
20115;BME280;10218;42.874;25.320;2023-04-19T10:14:23;96800.97;;;16.22;100.00
20115;BME280;10218;42.874;25.320;2023-04-19T10:16:51;96795.72;;;16.34;100.00
20115;BME280;10218;42.874;25.320;2023-04-19T10:19:19;96797.06;;;17.06;100.00
20115;BME280;10218;42.874;25.320;2023-04-19T10:21:48;96785.72;;;16.97;100.00
20115;BME280;10218;42.874;25.320;2023-04-19T10:24:17;96781.72;;;17.43;100.00
20115;BME280;10218;42.874;25.320;2023-04-19T10:27:04;96783.31;;;17.07;100.00
20115;BME280;10218;42.874;25.320;2023-04-19T10:32:28;96777.09;;;17.86;100.00
20115;BME280;10218;42.874;25.320;2023-04-19T10:35:10;96780.66;;;17.99;100.00
20115;BME280;10218;42.874;25.320;2023-04-19T10:40:53;96777.09;;;17.07;100.00
20115;BME280;10218;42.874;25.320;2023-04-19T10:43:23;96779.91;;;16.06;100.00
20115;BME280;10218;42.874;25.320;2023-04-19T10:45:51;96781.22;;;16.29;100.00
20115;BME280;10218;42.874;25.320;2023-04-19T10:51:13;96771.53;;;16.52;100.00
20115;BME280;10218;42.874;25.320;2023-04-19T11:01:55;96764.53;;;17.62;100.00
20115;BME280;10218;42.874;25.320;2023-04-19T11:07:00;96771.38;;;16.41;100.00
20115;BME280;10218;42.874;25.320;2023-04-19T11:09:32;96764.38;;;17.32;100.00
20115;BME280;10218;42.874;25.320;2023-04-19T11:12:09;96760.69;;;18.59;100.00
20115;BME280;10218;42.874;25.320;2023-04-19T11:14:43;96759.06;;;18.28;83.88
20115;BME280;10218;42.874;25.320;2023-04-19T11:17:16;96758.34;;;17.91;87.36
20115;BME280;10218;42.874;25.320;2023-04-19T11:20:05;96750.53;;;18.43;87.29
20115;BME280;10218;42.874;25.320;2023-04-19T11:22:37;96759.66;;;18.30;86.96
20115;BME280;10218;42.874;25.320;2023-04-19T11:25:19;96740.41;;;19.03;89.64
20115;BME280;10218;42.874;25.320;2023-04-19T11:27:51;96741.78;;;18.71;93.03
20115;BME280;10218;42.874;25.320;2023-04-19T11:30:21;96743.78;;;17.92;89.43
20115;BME280;10218;42.874;25.320;2023-04-19T11:32:51;96743.91;;;17.98;85.74
20115;BME280;10218;42.874;25.320;2023-04-19T11:35:26;96739.44;;;18.03;89.53
20115;BME280;10218;42.874;25.320;2023-04-19T11:37:55;96747.69;;;16.49;100.00
20115;BME280;10218;42.874;25.320;2023-04-19T11:40:23;96738.09;;;17.64;86.93
20115;BME280;10218;42.874;25.320;2023-04-19T11:42:56;96739.28;;;18.58;72.36
20115;BME280;10218;42.874;25.320;2023-04-19T11:45:26;96737.63;;;20.41;61.34
20115;BME280;10218;42.874;25.320;2023-04-19T11:47:56;96737.81;;;19.83;64.45
20115;BME280;10218;42.874;25.320;2023-04-19T11:50:40;96726.50;;;20.15;63.55
20115;BME280;10218;42.874;25.320;2023-04-19T11:53:17;96725.34;;;20.39;64.58
20115;BME280;10218;42.874;25.320;2023-04-19T11:55:47;96728.50;;;19.04;62.33
20115;BME280;10218;42.874;25.320;2023-04-19T11:58:39;96727.41;;;18.29;65.87
20115;BME280;10218;42.874;25.320;2023-04-19T12:01:12;96724.84;;;18.64;70.63
20115;BME280;10218;42.874;25.320;2023-04-19T12:03:43;96720.94;;;18.18;76.16
20115;BME280;10218;42.874;25.320;2023-04-19T12:06:14;96720.88;;;16.86;82.58
20115;BME280;10218;42.874;25.320;2023-04-19T12:08:45;96717.28;;;17.10;100.00
20115;BME280;10218;42.874;25.320;2023-04-19T12:11:13;96719.06;;;17.52;98.69
20115;BME280;10218;42.874;25.320;2023-04-19T12:13:41;96717.00;;;17.36;96.48
20115;BME280;10218;42.874;25.320;2023-04-19T12:16:11;96721.47;;;17.42;92.59
20115;BME280;10218;42.874;25.320;2023-04-19T12:18:49;96714.75;;;17.70;99.69
20115;BME280;10218;42.874;25.320;2023-04-19T12:21:27;96698.78;;;17.14;90.99
20115;BME280;10218;42.874;25.320;2023-04-19T12:23:59;96709.41;;;17.45;96.61
20115;BME280;10218;42.874;25.320;2023-04-19T12:26:27;96703.66;;;17.05;95.54
20115;BME280;10218;42.874;25.320;2023-04-19T12:28:56;96700.81;;;16.50;98.92
20115;BME280;10218;42.874;25.320;2023-04-19T12:31:23;96698.75;;;16.21;100.00
20115;BME280;10218;42.874;25.320;2023-04-19T12:33:51;96692.44;;;16.09;100.00
20115;BME280;10218;42.874;25.320;2023-04-19T12:36:18;96690.38;;;15.73;100.00
20115;BME280;10218;42.874;25.320;2023-04-19T12:38:45;96693.03;;;15.79;100.00
20115;BME280;10218;42.874;25.320;2023-04-19T12:41:12;96684.91;;;16.17;100.00
20115;BME280;10218;42.874;25.320;2023-04-19T12:43:39;96691.09;;;15.93;100.00
20115;BME280;10218;42.874;25.320;2023-04-19T12:46:06;96693.13;;;15.98;100.00
20115;BME280;10218;42.874;25.320;2023-04-19T12:48:34;96697.09;;;15.57;100.00
20115;BME280;10218;42.874;25.320;2023-04-19T12:51:01;96684.00;;;16.30;100.00
20115;BME280;10218;42.874;25.320;2023-04-19T12:53:28;96686.72;;;16.48;100.00
20115;BME280;10218;42.874;25.320;2023-04-19T12:55:55;96683.56;;;17.19;86.93
20115;BME280;10218;42.874;25.320;2023-04-19T12:58:22;96688.19;;;16.76;93.19
20115;BME280;10218;42.874;25.320;2023-04-19T13:00:49;96689.78;;;16.58;98.11
20115;BME280;10218;42.874;25.320;2023-04-19T13:03:17;96685.16;;;15.33;100.00
20115;BME280;10218;42.874;25.320;2023-04-19T13:05:44;96686.59;;;15.29;100.00
20115;BME280;10218;42.874;25.320;2023-04-19T13:08:11;96683.97;;;15.74;100.00
20115;BME280;10218;42.874;25.320;2023-04-19T13:10:38;96679.16;;;16.07;100.00